Wilmer, AL (36587)

5:33 PM CST on January 26, 2015 (GMT -0600)
APRSWXNET Wilmer AL US | Change Station
CLOSE
Current Station
Personal Weather Station
Location: Wilmer, AL
Elevation: 183 ft
Nearby Weather Stations

Elev 183 ft 30.75 °N, 88.40 °W | Updated 33 minutes ago

Clear
Clear
54 °F
Feels Like 54 °F
N
2
Wind Variable Wind from NW
Gusts 7.0 mph

Today
High -- | Low -- °F
--% Chance of Precip.
Yesterday
High -- | Low -- °F
Precip. -- in
6:48 AM 5:23 PM
Waxing Crescent, 48% visible
Pressure 30.04 in
Visibility 10.0 miles
Clouds Clear
Dew Point 34 °F
Humidity 47%
Rainfall 0.00 in
Snow Depth Not available.
UV 0 out of 12
Pollen 6.00 out of 12
Air Quality Not available.
Flu Activity Not available.
METAR KMOB 262256Z 33007KT 10SM CLR 12/M02 A3004 RMK AO2 SLP171 T01221017

More Conditions Fewer Conditions

Pressure 30.04 in
Visibility 10.0 miles
Clouds Clear
Dew Point 34 °F
Humidity 47%
Rainfall 0.00 in
Snow Depth Not available.
UV 0 out of 12
Pollen 6.00 out of 12
Air Quality Not available.
Flu Activity Not available.
METAR KMOB 262256Z 33007KT 10SM CLR 12/M02 A3004 RMK AO2 SLP171 T01221017

More Conditions Fewer Conditions

10-Day Weather Forecast

Almanac

Astronomy

Jan. 26, 2015 Rise Set
Actual Time
Civil Twilight
Nautical Twilight
Astronomical Twilight
Moon
Length of Visible Light
Length of Day
Tomorrow will be .
, % of the Moon is Illuminated

Today's Extremes

State Highs State Lows

Community

WunderPhotos

Upload Photos

1,790,394 photos uploaded!

WunderBlogs® & News

Nearby

Air Quality

  Air Quality AQ Index Pollutant
Not available.

Snow Depth

Station Depth Elevation

Earthquake Activity

City Distance Mag. Time & Date
Minimum magnitude displayed is 2.5.

Coastal Water Temperatures

Place Temperature

Nearby Weather Stations